Report METAR

 

LIPQ - Ronchi Legionari, Italy
Distance from station: SSO 4km
Dati ricevuti: 26/01/2020 05:20
Pioggia leggera, Mist, Nuvoloso
Pioggia leggera, Mist, Nuvoloso
 Vento da N
Vento: N 4 km/h
Temperatura: 7°C
P.to Rugiada: 7°C
Umidità: 100%
Barometro: 1021 hPa
Summary: Pioggia leggera, Mist
Nuvole: Molto nuvoloso
Visibility: 5 km
Cloud details: Molto nuvoloso 274 m
2020/01/26 05:20 LIPQ 260520Z 36002KT 5000 -RA BR BKN009 07/07 Q1021
LIVT - Trieste, Italy
Distance from station: SE 27km
Dati ricevuti: 25/01/2020 16:55
DATI Obsoleti
Molto nuvoloso
Molto nuvoloso
 Vento da Variabile
Vento: Variabile 0 km/h
Temperatura: 9°C
P.to Rugiada: 9°C
Umidità: 100%
Barometro: 1022 hPa
Nuvole: Molto nuvoloso
Visibility: 10 km
Cloud details: Molto nuvoloso 914 m
2020/01/25 16:55 LIVT 251655Z /////KT 9999 BKN030 09/09 Q1022 RMK BKN QUK / QUL / VIS MAR 15 KM VIS MIN 9999
 
LIPI - Rivolto (it-Afb), Italy
Distance from station: ONO 37km
Dati ricevuti: 24/01/2020 10:55
DATI Obsoleti
Sereno
Sereno
 Vento da Variabile
Vento: Variabile 2 km/h
Temperatura: 8°C
P.to Rugiada: -2°C
Umidità: 50%
Barometro: 1028 hPa
Summary: Sereno
Visibility: superiore a 10 km
2020/01/24 10:55 LIPI 241055Z VRB01KT CAVOK 08/M02 Q1028 RMK SKC VIS MIN 9999 WIND THR06 VRB01KT WIND THR24 VRB01KT BLU
LJPZ - Portoroz, Slovenia
Distance from station: SSE 43km
Dati ricevuti: 26/01/2020 05:00
Pioggia leggera, Mist, Coperto
Pioggia leggera, Mist, Coperto
 Vento da ESE
Vento: ESE 6 km/h
Temperatura: 8°C
P.to Rugiada: 8°C
Umidità: 100%
Barometro: 1021 hPa
Summary: Pioggia leggera, Mist
Nuvole: Coperto
Visibility: 4 km
Cloud details: Parz. nuvoloso 274 m
Molto nuvoloso 396 m
Coperto 792 m
2020/01/26 05:00 LJPZ 260500Z 12003KT 040V190 3700 -RA BR SCT009 BKN013 OVC026 08/08 Q1021
 
LIPA - Aviano (it/Us-Af, Italy
Distance from station: ONO 73km
Dati ricevuti: 25/01/2020 20:55
DATI Obsoleti
Molto nuvoloso
Molto nuvoloso
 Vento da ENE
Vento: ENE 6 km/h
Temperatura: 6°C
P.to Rugiada: 5°C
Umidità: 93%
Barometro: 1022 hPa
Nuvole: Molto nuvoloso
Visibility: 10 km
Cloud details: Few Clouds 1219 m
Molto nuvoloso 1676 m
2020/01/25 20:55 LIPA 252055Z 07003KT 9999 FEW040 BKN055 06/05 Q1022 RMK BKN VIS MIN 9999 WIND THR05 /////KT WIND THR23 /////KT A3020 BLU
LIVO - Tarvisio, Italy
Distance from station: N 73km
Dati ricevuti: 25/01/2020 17:55
DATI Obsoleti
Sereno
Sereno
 Vento da calmo
Vento: Calma
Temperatura: 2°C
P.to Rugiada: -1°C
Umidità: 81%
Barometro: 1020 hPa
Summary: Sereno
Visibility: superiore a 10 km
2020/01/25 17:55 LIVO 251755Z 00000KT CAVOK 02/M01 Q1020 RMK SCT SCT200 VIS MIN 9999
 
LJLJ - Ljubljana/Brnik, Slovenia
Distance from station: ENE 86km
Dati ricevuti: 26/01/2020 05:00
Light drizzle, Nuvoloso
Light drizzle, Nuvoloso
 Vento da O
Vento: O 7 km/h
Temperatura: 2°C
Temperatura Vento: 0°C
P.to Rugiada: 1°C
Umidità: 93%
Barometro: 1020 hPa
Summary: Light Drizzle
Nuvole: Molto nuvoloso
Visibility: 10 km
Cloud details: Few Clouds 396 m
Molto nuvoloso 1006 m
Molto nuvoloso 1524 m
2020/01/26 05:00 LJLJ 260500Z 28004KT 9999 -DZ FEW013 BKN033 BKN050 02/01 Q1020 R30/29//95 NOSIG
LIPZ - Venezia/Tessera, Italy
Distance from station: OSO 96km
Dati ricevuti: 26/01/2020 05:20
Mist, Nuvoloso
Mist, Nuvoloso
 Vento da ONO
Vento: ONO 4 km/h
Temperatura: 6°C
P.to Rugiada: 6°C
Umidità: 100%
Barometro: 1021 hPa
Summary: Mist
Nuvole: Molto nuvoloso
Visibility: 2 km
Cloud details: Molto nuvoloso 305 m
2020/01/26 05:20 LIPZ 260520Z 29002KT 2000 BR BKN010 06/06 Q1021 NOSIG
 
LIPH - Treviso(Civ/It-A, Italy
Distance from station: OSO 105km
Dati ricevuti: 26/01/2020 05:20
Mist, Coperto
Mist, Coperto
 Vento da O
Vento: O 2 km/h
Temperatura: 6°C
P.to Rugiada: 6°C
Umidità: 100%
Barometro: 1021 hPa
Summary: Mist
Nuvole: Coperto
Visibility: 2 km
Cloud details: Coperto 701 m
2020/01/26 05:20 LIPH 260520Z AUTO 26001KT 1800 BR OVC023/// 06/06 Q1021
LDRI - Rijeka/Omisalj, Croatia
Distance from station: SE 109km
Dati ricevuti: 26/01/2020 05:30
Nebbia, Coperto
Nebbia, Coperto
 Vento da ESE
Vento: ESE 7 km/h
Temperatura: 9°C
Temperatura Vento: 8°C
P.to Rugiada: 9°C
Umidità: 100%
Barometro: 1021 hPa
Summary: Nebbia
Nuvole: Coperto
Visibility: 0 km
Cloud details: Coperto 213 m
2020/01/26 05:30 LDRI 260530Z 12004KT 0300 FG OVC007 09/09 Q1021
 
LOWK - Klagenfurt(Civ/M, Austria
Distance from station: NE 110km
Dati ricevuti: 26/01/2020 05:20
Molto nuvoloso
Molto nuvoloso
 Vento da NO
Vento: NO 6 km/h
Temperatura: -4°C
P.to Rugiada: -5°C
Umidità: 93%
Barometro: 1021 hPa
Nuvole: Molto nuvoloso
Visibility: 8 km
Cloud details: Few Clouds 152 m
Parz. nuvoloso 3048 m
Molto nuvoloso 4267 m
2020/01/26 05:20 LOWK 260520Z 32003KT 8000 FEW005 SCT100 BKN140 M04/M05 Q1021 R10L/19//95 NOSIG
LIPS - Istrana (it-Afb), Italy
Distance from station: O 111km
Dati ricevuti: 26/01/2020 04:55
Mist, Nuvoloso
Mist, Nuvoloso
 Vento da Variabile
Vento: Variabile 0 km/h
Temperatura: 6°C
P.to Rugiada: 6°C
Umidità: 100%
Barometro: 1021 hPa
Summary: Mist
Nuvole: Molto nuvoloso
Visibility: 2 km
Cloud details: Molto nuvoloso 914 m
2020/01/26 04:55 LIPS 260455Z /////KT 2000 BR BKN030 06/06 Q1021 RMK BKN VIS MIN 2000 WIND THR26 00000KT WIND THR08 00000KT YLO
 
LDPL - Pula, Croatia
Distance from station: SSE 112km
Dati ricevuti: 26/01/2020 05:30
Mist, Coperto
Mist, Coperto
 Vento da Variabile
Vento: Variabile 4 km/h
Temperatura: 8°C
P.to Rugiada: 8°C
Umidità: 100%
Barometro: 1021 hPa
Summary: Mist
Nuvole: Coperto
Visibility: 2 km
Cloud details: Few Clouds 152 m
Coperto 244 m
2020/01/26 05:30 LDPL 260530Z VRB02KT 1800 BR FEW005 OVC008 08/08 Q1021 NOSIG
LIVD - Dobbiaco, Italy
Distance from station: NO 138km
Dati ricevuti: 25/01/2020 17:55
DATI Obsoleti
Few Clouds
Few Clouds
 Vento da Variabile
Vento: Variabile 0 km/h
Temperatura: 0°C
P.to Rugiada: -4°C
Umidità: 75%
Barometro: 1021 hPa
Nuvole: Few Clouds
Visibility: 10 km
Cloud details: Few Clouds 1219 m
2020/01/25 17:55 LIVD 251755Z /////KT 9999 FEW040 00/M04 Q1021 RMK BKN BKN200 VIS MIN 9999
 
LIPU - Padova (civ/It-A, Italy
Distance from station: OSO 139km
Dati ricevuti: 25/01/2020 07:00
DATI Obsoleti
Mist, Nuvoloso
Mist, Nuvoloso
 Vento da Variabile
Vento: Variabile 6 km/h
Temperatura: 5°C
P.to Rugiada: 3°C
Umidità: 87%
Barometro: 1025 hPa
Summary: Mist
Nuvole: Molto nuvoloso
Visibility: 4 km
Cloud details: Molto nuvoloso 610 m
2020/01/25 07:00 LIPU 250700Z VRB03KT 4000 BR BKN020 05/03 Q1025
LIVR - Rolle Pass, Italy
Distance from station: ONO 142km
Dati ricevuti: 26/01/2020 03:55
DATI Obsoleti
Freezing Fog
Freezing Fog
 Vento da SE
Vento: SE 15 km/h
Temperatura: -2°C
Temperatura Vento: -7°C
P.to Rugiada: -3°C
Umidità: 93%
Barometro: 1015 hPa
Summary: Freezing Fog
Visibility: 0 km
2020/01/26 03:55 LIVR 260355Z 13008KT 0100 FZFG VV/// M02/M03 Q1015 RMK MON INVIS VIS MIN 0100
 
LJCE - Cerklje, Slovenia
Distance from station: E 157km
Dati ricevuti: 26/01/2020 05:00
Mist, Coperto
Mist, Coperto
 Vento da ENE
Vento: ENE 2 km/h
Temperatura: 0°C
P.to Rugiada: 0°C
Umidità: 100%
Barometro: 1022 hPa
Summary: Mist
Nuvole: Coperto
Visibility: 3 km
Cloud details: Coperto 122 m
2020/01/26 05:00 LJCE 260500Z AUTO 07001KT 3100 BR OVC004/// 00/M00 Q1022
LDLO - Losinj Island, Croatia
Distance from station: SSE 159km
Dati ricevuti: 19/01/2020 19:00
DATI Obsoleti
Sereno
Sereno
 Vento da NNE
Vento: NNE 28 km/h
Temperatura: 8°C
Temperatura Vento: 4°C
P.to Rugiada: -1°C
Umidità: 53%
Barometro: 1030 hPa
Summary: Sereno
Visibility: superiore a 10 km
2020/01/19 19:00 LDLO 191900Z 03015KT CAVOK 08/M01 Q1030
 
LOXZ - Zeltweg (mil), Austria
Distance from station: NNE 179km
Dati ricevuti: 26/01/2020 04:50
Parz. nuvoloso
Parz. nuvoloso
 Vento da ONO
Vento: ONO 4 km/h
Temperatura: -5°C
P.to Rugiada: -6°C
Umidità: 93%
Barometro: 1020 hPa
Nuvole: Parz. nuvoloso
Cloud details: Parz. nuvoloso 3048 m
2020/01/26 04:50 LOXZ 260450Z 29002KT 15KM SCT100AC M05/M06 Q1020
LIPB - Bolzano(Civ/It-A, Italy
Distance from station: ONO 181km
Dati ricevuti: 25/01/2020 21:50
DATI Obsoleti
Molto nuvoloso
Molto nuvoloso
 Vento da Variabile
Vento: Variabile 4 km/h
Temperatura: 2°C
P.to Rugiada: -3°C
Umidità: 70%
Barometro: 1023 hPa
Nuvole: Molto nuvoloso
Visibility: 10 km
Cloud details: Molto nuvoloso 2591 m
2020/01/25 21:50 LIPB 252150Z VRB02KT 9999 BKN085 02/M03 Q1023